sensor_id;sensor_type;location;lat;lon;timestamp;temperature;humidity
18541;DHT22;9400;50.924;5.328;2022-08-01T00:01:21;21.60;99.90
18541;DHT22;9400;50.924;5.328;2022-08-01T00:03:49;21.70;99.90
18541;DHT22;9400;50.924;5.328;2022-08-01T00:06:17;21.60;99.90
18541;DHT22;9400;50.924;5.328;2022-08-01T00:08:45;21.50;99.90
18541;DHT22;9400;50.924;5.328;2022-08-01T00:11:13;21.50;99.90
18541;DHT22;9400;50.924;5.328;2022-08-01T00:13:40;21.50;99.90
18541;DHT22;9400;50.924;5.328;2022-08-01T00:16:07;21.50;99.90
18541;DHT22;9400;50.924;5.328;2022-08-01T00:18:37;21.40;99.90
18541;DHT22;9400;50.924;5.328;2022-08-01T00:21:04;21.40;99.90
18541;DHT22;9400;50.924;5.328;2022-08-01T00:23:32;21.40;99.90
18541;DHT22;9400;50.924;5.328;2022-08-01T00:26:00;21.30;99.90
18541;DHT22;9400;50.924;5.328;2022-08-01T00:28:27;21.30;99.90
18541;DHT22;9400;50.924;5.328;2022-08-01T00:30:54;21.30;99.90
18541;DHT22;9400;50.924;5.328;2022-08-01T00:33:22;21.30;99.90
18541;DHT22;9400;50.924;5.328;2022-08-01T00:35:51;21.30;99.90
18541;DHT22;9400;50.924;5.328;2022-08-01T00:38:18;21.30;99.90
18541;DHT22;9400;50.924;5.328;2022-08-01T00:40:46;21.30;99.90
18541;DHT22;9400;50.924;5.328;2022-08-01T00:43:13;21.40;99.90
18541;DHT22;9400;50.924;5.328;2022-08-01T00:45:42;21.30;99.90
18541;DHT22;9400;50.924;5.328;2022-08-01T00:48:10;21.40;99.90
18541;DHT22;9400;50.924;5.328;2022-08-01T00:50:38;21.30;99.90
18541;DHT22;9400;50.924;5.328;2022-08-01T00:53:08;21.30;99.90
18541;DHT22;9400;50.924;5.328;2022-08-01T00:55:35;21.40;99.90
18541;DHT22;9400;50.924;5.328;2022-08-01T00:58:03;21.40;99.90
18541;DHT22;9400;50.924;5.328;2022-08-01T01:00:31;21.40;99.90
18541;DHT22;9400;50.924;5.328;2022-08-01T01:02:59;21.30;99.90
18541;DHT22;9400;50.924;5.328;2022-08-01T01:05:28;21.30;99.90
18541;DHT22;9400;50.924;5.328;2022-08-01T01:08:11;21.20;99.90
18541;DHT22;9400;50.924;5.328;2022-08-01T01:10:46;21.20;99.90
18541;DHT22;9400;50.924;5.328;2022-08-01T01:13:20;21.30;99.90
18541;DHT22;9400;50.924;5.328;2022-08-01T01:15:57;21.20;99.90
18541;DHT22;9400;50.924;5.328;2022-08-01T01:18:31;21.20;99.90
18541;DHT22;9400;50.924;5.328;2022-08-01T01:21:07;21.20;99.90
18541;DHT22;9400;50.924;5.328;2022-08-01T01:23:54;21.30;99.90
18541;DHT22;9400;50.924;5.328;2022-08-01T01:26:31;21.20;99.90
18541;DHT22;9400;50.924;5.328;2022-08-01T01:29:11;21.20;99.90
18541;DHT22;9400;50.924;5.328;2022-08-01T01:31:44;21.20;99.90
18541;DHT22;9400;50.924;5.328;2022-08-01T01:34:13;21.20;99.90
18541;DHT22;9400;50.924;5.328;2022-08-01T01:36:44;21.20;99.90
18541;DHT22;9400;50.924;5.328;2022-08-01T01:39:14;21.10;99.90
18541;DHT22;9400;50.924;5.328;2022-08-01T01:41:43;21.20;99.90
18541;DHT22;9400;50.924;5.328;2022-08-01T01:44:15;21.20;99.90
18541;DHT22;9400;50.924;5.328;2022-08-01T01:46:43;21.20;99.90
18541;DHT22;9400;50.924;5.328;2022-08-01T01:49:12;21.20;99.90
18541;DHT22;9400;50.924;5.328;2022-08-01T01:51:41;21.10;99.90
18541;DHT22;9400;50.924;5.328;2022-08-01T01:54:10;21.20;99.90
18541;DHT22;9400;50.924;5.328;2022-08-01T01:56:40;21.20;99.90
18541;DHT22;9400;50.924;5.328;2022-08-01T01:59:19;21.20;99.90
18541;DHT22;9400;50.924;5.328;2022-08-01T02:01:49;21.20;99.90
18541;DHT22;9400;50.924;5.328;2022-08-01T02:04:20;21.20;99.90
18541;DHT22;9400;50.924;5.328;2022-08-01T02:06:49;21.20;99.90
18541;DHT22;9400;50.924;5.328;2022-08-01T02:09:19;21.20;99.90
18541;DHT22;9400;50.924;5.328;2022-08-01T02:11:48;21.20;99.90
18541;DHT22;9400;50.924;5.328;2022-08-01T02:14:18;21.10;99.90
18541;DHT22;9400;50.924;5.328;2022-08-01T02:16:51;21.10;99.90
18541;DHT22;9400;50.924;5.328;2022-08-01T02:19:19;21.10;99.90
18541;DHT22;9400;50.924;5.328;2022-08-01T02:21:51;21.00;99.90
18541;DHT22;9400;50.924;5.328;2022-08-01T02:24:27;21.00;99.90
18541;DHT22;9400;50.924;5.328;2022-08-01T02:26:57;21.10;99.90
18541;DHT22;9400;50.924;5.328;2022-08-01T02:29:36;21.00;99.90
18541;DHT22;9400;50.924;5.328;2022-08-01T02:32:06;21.10;99.90
18541;DHT22;9400;50.924;5.328;2022-08-01T02:34:35;21.10;99.90
18541;DHT22;9400;50.924;5.328;2022-08-01T02:37:03;21.10;99.90
18541;DHT22;9400;50.924;5.328;2022-08-01T02:39:32;21.10;99.90
18541;DHT22;9400;50.924;5.328;2022-08-01T02:42:06;21.00;99.90
18541;DHT22;9400;50.924;5.328;2022-08-01T02:44:38;21.10;99.90
18541;DHT22;9400;50.924;5.328;2022-08-01T02:47:07;21.10;99.90
18541;DHT22;9400;50.924;5.328;2022-08-01T02:49:42;21.00;99.90
18541;DHT22;9400;50.924;5.328;2022-08-01T02:52:13;21.00;99.90
18541;DHT22;9400;50.924;5.328;2022-08-01T02:54:43;20.90;99.90
18541;DHT22;9400;50.924;5.328;2022-08-01T02:57:13;21.00;99.90
18541;DHT22;9400;50.924;5.328;2022-08-01T02:59:44;21.00;99.90
18541;DHT22;9400;50.924;5.328;2022-08-01T03:02:13;20.90;99.90
18541;DHT22;9400;50.924;5.328;2022-08-01T03:04:42;20.90;99.90
18541;DHT22;9400;50.924;5.328;2022-08-01T03:07:11;20.90;99.90
18541;DHT22;9400;50.924;5.328;2022-08-01T03:09:43;20.90;99.90
18541;DHT22;9400;50.924;5.328;2022-08-01T03:12:13;21.00;99.90
18541;DHT22;9400;50.924;5.328;2022-08-01T03:14:44;20.90;99.90
18541;DHT22;9400;50.924;5.328;2022-08-01T03:17:13;20.90;99.90
18541;DHT22;9400;50.924;5.328;2022-08-01T03:19:46;20.80;99.90
18541;DHT22;9400;50.924;5.328;2022-08-01T03:22:16;20.80;99.90
18541;DHT22;9400;50.924;5.328;2022-08-01T03:24:47;20.80;99.90
18541;DHT22;9400;50.924;5.328;2022-08-01T03:27:16;20.90;99.90
18541;DHT22;9400;50.924;5.328;2022-08-01T03:29:47;20.90;99.90
18541;DHT22;9400;50.924;5.328;2022-08-01T03:32:17;20.90;99.90
18541;DHT22;9400;50.924;5.328;2022-08-01T03:34:45;20.80;99.90
18541;DHT22;9400;50.924;5.328;2022-08-01T03:37:19;20.90;99.90
18541;DHT22;9400;50.924;5.328;2022-08-01T03:39:55;20.90;99.90
18541;DHT22;9400;50.924;5.328;2022-08-01T03:42:28;20.90;99.90
18541;DHT22;9400;50.924;5.328;2022-08-01T03:45:03;21.00;99.90
18541;DHT22;9400;50.924;5.328;2022-08-01T03:47:33;20.90;99.90
18541;DHT22;9400;50.924;5.328;2022-08-01T03:50:03;20.90;99.90
18541;DHT22;9400;50.924;5.328;2022-08-01T03:52:32;20.90;99.90
18541;DHT22;9400;50.924;5.328;2022-08-01T03:55:04;20.90;99.90
18541;DHT22;9400;50.924;5.328;2022-08-01T03:57:33;20.80;99.90
18541;DHT22;9400;50.924;5.328;2022-08-01T04:00:17;20.80;99.90
18541;DHT22;9400;50.924;5.328;2022-08-01T04:02:46;20.80;99.90
18541;DHT22;9400;50.924;5.328;2022-08-01T04:05:15;20.90;99.90
18541;DHT22;9400;50.924;5.328;2022-08-01T04:07:46;20.90;99.90
18541;DHT22;9400;50.924;5.328;2022-08-01T04:10:16;20.90;99.90
18541;DHT22;9400;50.924;5.328;2022-08-01T04:12:44;20.80;99.90
18541;DHT22;9400;50.924;5.328;2022-08-01T04:15:11;20.80;99.90
18541;DHT22;9400;50.924;5.328;2022-08-01T04:17:41;20.80;99.90
18541;DHT22;9400;50.924;5.328;2022-08-01T04:20:10;20.80;99.90
18541;DHT22;9400;50.924;5.328;2022-08-01T04:22:39;20.80;99.90
18541;DHT22;9400;50.924;5.328;2022-08-01T04:25:11;20.80;99.90
18541;DHT22;9400;50.924;5.328;2022-08-01T04:27:45;20.80;99.90
18541;DHT22;9400;50.924;5.328;2022-08-01T04:30:15;20.80;99.90
18541;DHT22;9400;50.924;5.328;2022-08-01T04:32:46;20.80;99.90
18541;DHT22;9400;50.924;5.328;2022-08-01T04:35:17;20.80;99.90
18541;DHT22;9400;50.924;5.328;2022-08-01T04:37:47;20.80;99.90
18541;DHT22;9400;50.924;5.328;2022-08-01T04:40:17;20.80;99.90
18541;DHT22;9400;50.924;5.328;2022-08-01T04:42:48;20.80;99.90
18541;DHT22;9400;50.924;5.328;2022-08-01T04:45:16;20.90;99.90
18541;DHT22;9400;50.924;5.328;2022-08-01T04:47:48;21.00;99.90
18541;DHT22;9400;50.924;5.328;2022-08-01T04:50:16;20.80;99.90
18541;DHT22;9400;50.924;5.328;2022-08-01T04:52:44;20.90;99.90
18541;DHT22;9400;50.924;5.328;2022-08-01T04:55:12;20.90;99.90
18541;DHT22;9400;50.924;5.328;2022-08-01T04:57:42;20.90;99.90
18541;DHT22;9400;50.924;5.328;2022-08-01T05:00:11;20.90;99.90
18541;DHT22;9400;50.924;5.328;2022-08-01T05:02:39;20.80;99.90
18541;DHT22;9400;50.924;5.328;2022-08-01T05:05:08;20.80;99.90
18541;DHT22;9400;50.924;5.328;2022-08-01T05:07:36;20.80;99.90
18541;DHT22;9400;50.924;5.328;2022-08-01T05:10:05;20.80;99.90
18541;DHT22;9400;50.924;5.328;2022-08-01T05:12:33;20.80;99.90
18541;DHT22;9400;50.924;5.328;2022-08-01T05:15:00;20.80;99.90
18541;DHT22;9400;50.924;5.328;2022-08-01T05:17:28;20.80;99.90
18541;DHT22;9400;50.924;5.328;2022-08-01T05:19:57;20.80;99.90
18541;DHT22;9400;50.924;5.328;2022-08-01T05:22:26;20.80;99.90
18541;DHT22;9400;50.924;5.328;2022-08-01T05:24:54;20.70;99.90
18541;DHT22;9400;50.924;5.328;2022-08-01T05:27:22;20.60;99.90
18541;DHT22;9400;50.924;5.328;2022-08-01T05:29:49;20.50;99.90
18541;DHT22;9400;50.924;5.328;2022-08-01T05:32:17;20.50;99.90
18541;DHT22;9400;50.924;5.328;2022-08-01T05:34:45;20.40;99.90
18541;DHT22;9400;50.924;5.328;2022-08-01T05:37:12;20.50;99.90
18541;DHT22;9400;50.924;5.328;2022-08-01T05:39:41;20.40;99.90
18541;DHT22;9400;50.924;5.328;2022-08-01T05:42:09;20.30;99.90
18541;DHT22;9400;50.924;5.328;2022-08-01T05:44:36;20.20;99.90
18541;DHT22;9400;50.924;5.328;2022-08-01T05:47:04;20.20;99.90
18541;DHT22;9400;50.924;5.328;2022-08-01T05:49:32;20.10;99.90
18541;DHT22;9400;50.924;5.328;2022-08-01T05:52:00;20.00;99.90
18541;DHT22;9400;50.924;5.328;2022-08-01T05:54:28;20.00;99.90
18541;DHT22;9400;50.924;5.328;2022-08-01T05:56:57;20.10;99.90
18541;DHT22;9400;50.924;5.328;2022-08-01T05:59:27;20.00;99.90
18541;DHT22;9400;50.924;5.328;2022-08-01T06:01:55;20.10;99.90
18541;DHT22;9400;50.924;5.328;2022-08-01T06:04:22;20.00;99.90
18541;DHT22;9400;50.924;5.328;2022-08-01T06:06:53;19.80;99.90
18541;DHT22;9400;50.924;5.328;2022-08-01T06:09:20;19.80;99.90
18541;DHT22;9400;50.924;5.328;2022-08-01T06:11:48;20.00;99.90
18541;DHT22;9400;50.924;5.328;2022-08-01T06:14:17;20.20;99.90
18541;DHT22;9400;50.924;5.328;2022-08-01T06:16:45;20.30;99.90
18541;DHT22;9400;50.924;5.328;2022-08-01T06:19:12;20.40;99.90
18541;DHT22;9400;50.924;5.328;2022-08-01T06:21:40;20.50;99.90
18541;DHT22;9400;50.924;5.328;2022-08-01T06:24:07;20.70;99.90
18541;DHT22;9400;50.924;5.328;2022-08-01T06:26:35;20.70;99.90
18541;DHT22;9400;50.924;5.328;2022-08-01T06:29:03;20.70;99.90
18541;DHT22;9400;50.924;5.328;2022-08-01T06:31:32;20.80;99.90
18541;DHT22;9400;50.924;5.328;2022-08-01T06:33:59;20.80;99.90
18541;DHT22;9400;50.924;5.328;2022-08-01T06:36:27;20.90;99.90
18541;DHT22;9400;50.924;5.328;2022-08-01T06:38:54;21.00;99.90
18541;DHT22;9400;50.924;5.328;2022-08-01T06:41:22;21.10;99.90
18541;DHT22;9400;50.924;5.328;2022-08-01T06:43:50;21.30;99.90
18541;DHT22;9400;50.924;5.328;2022-08-01T06:46:17;21.20;99.90
18541;DHT22;9400;50.924;5.328;2022-08-01T06:48:47;21.20;99.90
18541;DHT22;9400;50.924;5.328;2022-08-01T06:51:15;21.20;99.90
18541;DHT22;9400;50.924;5.328;2022-08-01T06:53:46;21.30;99.90
18541;DHT22;9400;50.924;5.328;2022-08-01T06:56:14;21.20;99.90
18541;DHT22;9400;50.924;5.328;2022-08-01T06:58:41;21.30;99.90
18541;DHT22;9400;50.924;5.328;2022-08-01T07:01:09;21.30;99.90
18541;DHT22;9400;50.924;5.328;2022-08-01T07:03:37;21.30;99.90
18541;DHT22;9400;50.924;5.328;2022-08-01T07:06:06;21.40;99.90
18541;DHT22;9400;50.924;5.328;2022-08-01T07:08:34;21.40;99.90
18541;DHT22;9400;50.924;5.328;2022-08-01T07:11:01;21.60;99.90
18541;DHT22;9400;50.924;5.328;2022-08-01T07:13:29;21.70;99.90
18541;DHT22;9400;50.924;5.328;2022-08-01T07:15:58;21.80;99.90
18541;DHT22;9400;50.924;5.328;2022-08-01T07:18:26;21.90;99.90
18541;DHT22;9400;50.924;5.328;2022-08-01T07:20:54;22.00;99.90
18541;DHT22;9400;50.924;5.328;2022-08-01T07:23:23;22.10;99.90
18541;DHT22;9400;50.924;5.328;2022-08-01T07:25:51;22.20;99.90
18541;DHT22;9400;50.924;5.328;2022-08-01T07:28:18;22.20;99.90
18541;DHT22;9400;50.924;5.328;2022-08-01T07:30:46;22.20;99.90
18541;DHT22;9400;50.924;5.328;2022-08-01T07:33:13;22.20;99.90
18541;DHT22;9400;50.924;5.328;2022-08-01T07:35:41;22.30;99.90
18541;DHT22;9400;50.924;5.328;2022-08-01T07:38:09;22.30;99.90
18541;DHT22;9400;50.924;5.328;2022-08-01T07:40:38;22.30;99.90
18541;DHT22;9400;50.924;5.328;2022-08-01T07:43:06;22.50;99.90
18541;DHT22;9400;50.924;5.328;2022-08-01T07:45:34;22.80;99.90
18541;DHT22;9400;50.924;5.328;2022-08-01T07:48:03;23.10;99.90
18541;DHT22;9400;50.924;5.328;2022-08-01T07:50:31;23.00;99.90
18541;DHT22;9400;50.924;5.328;2022-08-01T07:53:00;22.90;99.90
18541;DHT22;9400;50.924;5.328;2022-08-01T07:55:28;22.90;99.90
18541;DHT22;9400;50.924;5.328;2022-08-01T07:57:58;22.90;99.90
18541;DHT22;9400;50.924;5.328;2022-08-01T08:00:25;22.70;99.90
18541;DHT22;9400;50.924;5.328;2022-08-01T08:02:53;22.50;99.90
18541;DHT22;9400;50.924;5.328;2022-08-01T08:05:25;22.40;99.90
18541;DHT22;9400;50.924;5.328;2022-08-01T08:07:53;22.30;99.90
18541;DHT22;9400;50.924;5.328;2022-08-01T08:10:21;22.40;99.90
18541;DHT22;9400;50.924;5.328;2022-08-01T08:12:49;22.70;99.90
18541;DHT22;9400;50.924;5.328;2022-08-01T08:15:18;22.90;99.90
18541;DHT22;9400;50.924;5.328;2022-08-01T08:17:46;23.00;99.90
18541;DHT22;9400;50.924;5.328;2022-08-01T08:20:14;23.20;99.90
18541;DHT22;9400;50.924;5.328;2022-08-01T08:22:42;23.00;99.90
18541;DHT22;9400;50.924;5.328;2022-08-01T08:25:10;23.00;99.90
18541;DHT22;9400;50.924;5.328;2022-08-01T08:27:38;23.00;99.90
18541;DHT22;9400;50.924;5.328;2022-08-01T08:30:06;23.20;99.90
18541;DHT22;9400;50.924;5.328;2022-08-01T08:32:36;23.30;99.90
18541;DHT22;9400;50.924;5.328;2022-08-01T08:35:06;23.30;99.90
18541;DHT22;9400;50.924;5.328;2022-08-01T08:37:34;23.20;99.90
18541;DHT22;9400;50.924;5.328;2022-08-01T08:40:03;23.20;99.90
18541;DHT22;9400;50.924;5.328;2022-08-01T08:42:32;23.20;99.90
18541;DHT22;9400;50.924;5.328;2022-08-01T08:45:00;23.10;99.90
18541;DHT22;9400;50.924;5.328;2022-08-01T08:47:28;23.30;99.90
18541;DHT22;9400;50.924;5.328;2022-08-01T08:50:01;23.20;99.90
18541;DHT22;9400;50.924;5.328;2022-08-01T08:52:30;23.40;99.90
18541;DHT22;9400;50.924;5.328;2022-08-01T08:55:03;23.60;99.90
18541;DHT22;9400;50.924;5.328;2022-08-01T08:57:31;23.90;99.90
18541;DHT22;9400;50.924;5.328;2022-08-01T08:59:59;24.00;99.90
18541;DHT22;9400;50.924;5.328;2022-08-01T09:02:26;24.20;99.90
18541;DHT22;9400;50.924;5.328;2022-08-01T09:04:54;24.70;99.90
18541;DHT22;9400;50.924;5.328;2022-08-01T09:07:23;24.90;99.90
18541;DHT22;9400;50.924;5.328;2022-08-01T09:09:52;24.80;99.90
18541;DHT22;9400;50.924;5.328;2022-08-01T09:12:20;25.00;99.90
18541;DHT22;9400;50.924;5.328;2022-08-01T09:14:47;25.00;99.90
18541;DHT22;9400;50.924;5.328;2022-08-01T09:17:19;24.80;99.90
18541;DHT22;9400;50.924;5.328;2022-08-01T09:19:50;24.80;99.90
18541;DHT22;9400;50.924;5.328;2022-08-01T09:22:20;25.00;99.90
18541;DHT22;9400;50.924;5.328;2022-08-01T09:25:06;25.00;99.90
18541;DHT22;9400;50.924;5.328;2022-08-01T09:27:35;25.10;99.90
18541;DHT22;9400;50.924;5.328;2022-08-01T09:30:09;25.10;99.90
18541;DHT22;9400;50.924;5.328;2022-08-01T09:32:56;24.80;99.90
18541;DHT22;9400;50.924;5.328;2022-08-01T09:35:25;24.70;99.90
18541;DHT22;9400;50.924;5.328;2022-08-01T09:38:13;25.20;99.90
18541;DHT22;9400;50.924;5.328;2022-08-01T09:40:47;25.30;99.90
18541;DHT22;9400;50.924;5.328;2022-08-01T09:43:15;25.30;99.90
18541;DHT22;9400;50.924;5.328;2022-08-01T09:45:43;24.90;99.90
18541;DHT22;9400;50.924;5.328;2022-08-01T09:48:11;24.80;99.90
18541;DHT22;9400;50.924;5.328;2022-08-01T09:50:40;24.90;99.90
18541;DHT22;9400;50.924;5.328;2022-08-01T09:53:09;24.70;99.90
18541;DHT22;9400;50.924;5.328;2022-08-01T09:55:37;24.50;99.90
18541;DHT22;9400;50.924;5.328;2022-08-01T09:58:06;24.60;99.90
18541;DHT22;9400;50.924;5.328;2022-08-01T10:00:35;24.70;99.90
18541;DHT22;9400;50.924;5.328;2022-08-01T10:03:19;24.70;99.90
18541;DHT22;9400;50.924;5.328;2022-08-01T10:05:47;25.00;99.90
18541;DHT22;9400;50.924;5.328;2022-08-01T10:08:15;24.90;99.90
18541;DHT22;9400;50.924;5.328;2022-08-01T10:10:46;25.20;99.90
18541;DHT22;9400;50.924;5.328;2022-08-01T10:13:33;25.30;99.90
18541;DHT22;9400;50.924;5.328;2022-08-01T10:16:01;25.10;99.90
18541;DHT22;9400;50.924;5.328;2022-08-01T10:18:31;25.60;99.90
18541;DHT22;9400;50.924;5.328;2022-08-01T10:21:00;25.90;99.90
18541;DHT22;9400;50.924;5.328;2022-08-01T10:23:33;25.60;99.90
18541;DHT22;9400;50.924;5.328;2022-08-01T10:26:02;25.70;99.90
18541;DHT22;9400;50.924;5.328;2022-08-01T10:28:35;25.90;99.90
18541;DHT22;9400;50.924;5.328;2022-08-01T10:31:03;25.80;99.90
18541;DHT22;9400;50.924;5.328;2022-08-01T10:33:31;25.70;99.90
18541;DHT22;9400;50.924;5.328;2022-08-01T10:35:58;25.10;99.90
18541;DHT22;9400;50.924;5.328;2022-08-01T10:38:27;25.40;99.90
18541;DHT22;9400;50.924;5.328;2022-08-01T10:40:56;25.60;99.90
18541;DHT22;9400;50.924;5.328;2022-08-01T10:43:24;25.40;99.90
18541;DHT22;9400;50.924;5.328;2022-08-01T10:45:54;25.40;99.90
18541;DHT22;9400;50.924;5.328;2022-08-01T10:48:26;25.30;99.90
18541;DHT22;9400;50.924;5.328;2022-08-01T10:51:00;25.30;99.90
18541;DHT22;9400;50.924;5.328;2022-08-01T10:53:28;25.50;99.90
18541;DHT22;9400;50.924;5.328;2022-08-01T10:56:00;25.70;99.90
18541;DHT22;9400;50.924;5.328;2022-08-01T10:58:29;25.90;99.90
18541;DHT22;9400;50.924;5.328;2022-08-01T11:04:07;27.10;99.90
18541;DHT22;9400;50.924;5.328;2022-08-01T11:06:46;26.50;99.90
18541;DHT22;9400;50.924;5.328;2022-08-01T11:09:23;26.40;99.90
18541;DHT22;9400;50.924;5.328;2022-08-01T11:11:59;26.10;99.90
18541;DHT22;9400;50.924;5.328;2022-08-01T11:14:28;26.20;99.90
18541;DHT22;9400;50.924;5.328;2022-08-01T11:16:56;26.40;99.90
18541;DHT22;9400;50.924;5.328;2022-08-01T11:20:08;26.80;99.90
18541;DHT22;9400;50.924;5.328;2022-08-01T11:26:06;27.20;99.90
18541;DHT22;9400;50.924;5.328;2022-08-01T11:28:34;27.20;99.90
18541;DHT22;9400;50.924;5.328;2022-08-01T11:31:26;27.70;99.90
18541;DHT22;9400;50.924;5.328;2022-08-01T11:33:54;27.70;99.90
18541;DHT22;9400;50.924;5.328;2022-08-01T11:36:23;27.90;99.90
18541;DHT22;9400;50.924;5.328;2022-08-01T11:39:13;27.80;99.90
18541;DHT22;9400;50.924;5.328;2022-08-01T11:41:43;27.80;99.90
18541;DHT22;9400;50.924;5.328;2022-08-01T11:44:14;27.80;99.90
18541;DHT22;9400;50.924;5.328;2022-08-01T11:46:56;28.10;99.90
18541;DHT22;9400;50.924;5.328;2022-08-01T11:49:28;27.80;99.90
18541;DHT22;9400;50.924;5.328;2022-08-01T11:52:02;28.20;99.90
18541;DHT22;9400;50.924;5.328;2022-08-01T11:54:31;28.40;99.90
18541;DHT22;9400;50.924;5.328;2022-08-01T11:56:59;28.10;99.90
18541;DHT22;9400;50.924;5.328;2022-08-01T11:59:27;28.00;99.90
18541;DHT22;9400;50.924;5.328;2022-08-01T12:01:55;28.20;99.90
18541;DHT22;9400;50.924;5.328;2022-08-01T12:04:23;28.10;99.90
18541;DHT22;9400;50.924;5.328;2022-08-01T12:06:51;28.10;99.90
18541;DHT22;9400;50.924;5.328;2022-08-01T12:09:27;28.20;99.90
18541;DHT22;9400;50.924;5.328;2022-08-01T12:11:54;28.20;99.90
18541;DHT22;9400;50.924;5.328;2022-08-01T12:14:22;28.10;99.90
18541;DHT22;9400;50.924;5.328;2022-08-01T12:16:52;27.40;99.90
18541;DHT22;9400;50.924;5.328;2022-08-01T12:19:22;27.80;99.90
18541;DHT22;9400;50.924;5.328;2022-08-01T12:22:07;28.10;99.90
18541;DHT22;9400;50.924;5.328;2022-08-01T12:24:38;28.50;99.90
18541;DHT22;9400;50.924;5.328;2022-08-01T12:27:07;28.80;99.90
18541;DHT22;9400;50.924;5.328;2022-08-01T12:29:37;28.40;99.90
18541;DHT22;9400;50.924;5.328;2022-08-01T12:32:22;28.40;99.90
18541;DHT22;9400;50.924;5.328;2022-08-01T12:34:50;27.80;99.90
18541;DHT22;9400;50.924;5.328;2022-08-01T12:37:18;27.60;99.90
18541;DHT22;9400;50.924;5.328;2022-08-01T12:39:47;27.90;99.90
18541;DHT22;9400;50.924;5.328;2022-08-01T12:42:15;27.70;99.90
18541;DHT22;9400;50.924;5.328;2022-08-01T12:44:45;28.30;99.90
18541;DHT22;9400;50.924;5.328;2022-08-01T12:47:13;28.80;99.90
18541;DHT22;9400;50.924;5.328;2022-08-01T12:49:42;29.10;99.90
18541;DHT22;9400;50.924;5.328;2022-08-01T12:52:11;29.70;99.90
18541;DHT22;9400;50.924;5.328;2022-08-01T12:58:07;29.90;99.90
18541;DHT22;9400;50.924;5.328;2022-08-01T13:00:37;30.10;99.90
18541;DHT22;9400;50.924;5.328;2022-08-01T13:03:08;30.10;99.90
18541;DHT22;9400;50.924;5.328;2022-08-01T13:05:54;30.30;99.90
18541;DHT22;9400;50.924;5.328;2022-08-01T13:08:24;30.80;99.90
18541;DHT22;9400;50.924;5.328;2022-08-01T13:11:00;31.00;99.90
18541;DHT22;9400;50.924;5.328;2022-08-01T13:13:40;31.30;99.90
18541;DHT22;9400;50.924;5.328;2022-08-01T13:16:09;30.10;99.90
18541;DHT22;9400;50.924;5.328;2022-08-01T13:18:37;30.40;99.90
18541;DHT22;9400;50.924;5.328;2022-08-01T13:21:10;31.10;99.90
18541;DHT22;9400;50.924;5.328;2022-08-01T13:23:39;31.10;99.90
18541;DHT22;9400;50.924;5.328;2022-08-01T13:26:06;31.00;99.90
18541;DHT22;9400;50.924;5.328;2022-08-01T13:28:34;30.40;99.90
18541;DHT22;9400;50.924;5.328;2022-08-01T13:31:05;30.80;99.90
18541;DHT22;9400;50.924;5.328;2022-08-01T13:33:43;31.30;99.90
18541;DHT22;9400;50.924;5.328;2022-08-01T13:36:11;32.10;99.90
18541;DHT22;9400;50.924;5.328;2022-08-01T13:38:39;32.20;99.90
18541;DHT22;9400;50.924;5.328;2022-08-01T13:41:24;31.40;99.90
18541;DHT22;9400;50.924;5.328;2022-08-01T13:43:53;30.80;99.90
18541;DHT22;9400;50.924;5.328;2022-08-01T13:46:22;31.50;99.90
18541;DHT22;9400;50.924;5.328;2022-08-01T13:48:50;32.30;99.90
18541;DHT22;9400;50.924;5.328;2022-08-01T13:51:18;31.30;99.90
18541;DHT22;9400;50.924;5.328;2022-08-01T13:53:45;30.90;99.90
18541;DHT22;9400;50.924;5.328;2022-08-01T13:56:13;30.10;99.90
18541;DHT22;9400;50.924;5.328;2022-08-01T13:58:42;29.90;99.90
18541;DHT22;9400;50.924;5.328;2022-08-01T14:01:09;30.60;99.90
18541;DHT22;9400;50.924;5.328;2022-08-01T14:03:38;31.60;99.90
18541;DHT22;9400;50.924;5.328;2022-08-01T14:06:06;31.10;99.90
18541;DHT22;9400;50.924;5.328;2022-08-01T14:08:34;30.60;99.90
18541;DHT22;9400;50.924;5.328;2022-08-01T14:11:02;30.50;99.90
18541;DHT22;9400;50.924;5.328;2022-08-01T14:13:29;30.80;99.90
18541;DHT22;9400;50.924;5.328;2022-08-01T14:15:59;32.20;99.90
18541;DHT22;9400;50.924;5.328;2022-08-01T14:18:27;32.70;99.90
18541;DHT22;9400;50.924;5.328;2022-08-01T14:20:56;32.20;99.90
18541;DHT22;9400;50.924;5.328;2022-08-01T14:23:26;31.90;99.90
18541;DHT22;9400;50.924;5.328;2022-08-01T14:25:54;32.00;99.90
18541;DHT22;9400;50.924;5.328;2022-08-01T14:28:21;31.40;99.90
18541;DHT22;9400;50.924;5.328;2022-08-01T14:30:49;30.60;99.90
18541;DHT22;9400;50.924;5.328;2022-08-01T14:33:16;31.20;99.90
18541;DHT22;9400;50.924;5.328;2022-08-01T14:35:44;32.20;99.90
18541;DHT22;9400;50.924;5.328;2022-08-01T14:38:13;32.40;99.90
18541;DHT22;9400;50.924;5.328;2022-08-01T14:40:40;33.30;99.90
18541;DHT22;9400;50.924;5.328;2022-08-01T14:43:08;34.30;99.90
18541;DHT22;9400;50.924;5.328;2022-08-01T14:45:36;35.30;99.90
18541;DHT22;9400;50.924;5.328;2022-08-01T14:48:04;34.70;99.90
18541;DHT22;9400;50.924;5.328;2022-08-01T14:50:32;34.80;99.90
18541;DHT22;9400;50.924;5.328;2022-08-01T14:52:59;34.10;99.90
18541;DHT22;9400;50.924;5.328;2022-08-01T14:55:29;33.00;99.90
18541;DHT22;9400;50.924;5.328;2022-08-01T14:57:56;32.30;99.90
18541;DHT22;9400;50.924;5.328;2022-08-01T15:00:24;33.30;99.90
18541;DHT22;9400;50.924;5.328;2022-08-01T15:02:54;34.20;99.90
18541;DHT22;9400;50.924;5.328;2022-08-01T15:05:22;34.50;99.90
18541;DHT22;9400;50.924;5.328;2022-08-01T15:07:50;34.60;99.90
18541;DHT22;9400;50.924;5.328;2022-08-01T15:10:18;34.30;99.90
18541;DHT22;9400;50.924;5.328;2022-08-01T15:12:47;33.60;99.90
18541;DHT22;9400;50.924;5.328;2022-08-01T15:15:14;34.20;99.90
18541;DHT22;9400;50.924;5.328;2022-08-01T15:17:42;35.20;99.90
18541;DHT22;9400;50.924;5.328;2022-08-01T15:20:10;34.90;99.90
18541;DHT22;9400;50.924;5.328;2022-08-01T15:22:38;34.80;99.90
18541;DHT22;9400;50.924;5.328;2022-08-01T15:25:06;34.70;99.90
18541;DHT22;9400;50.924;5.328;2022-08-01T15:27:33;35.10;99.90
18541;DHT22;9400;50.924;5.328;2022-08-01T15:30:04;34.50;99.90
18541;DHT22;9400;50.924;5.328;2022-08-01T15:32:31;34.80;99.90
18541;DHT22;9400;50.924;5.328;2022-08-01T15:34:59;35.90;99.90
18541;DHT22;9400;50.924;5.328;2022-08-01T15:37:27;35.30;99.90
18541;DHT22;9400;50.924;5.328;2022-08-01T15:39:54;34.70;99.90
18541;DHT22;9400;50.924;5.328;2022-08-01T15:42:22;35.30;99.90
18541;DHT22;9400;50.924;5.328;2022-08-01T15:44:49;34.90;99.90
18541;DHT22;9400;50.924;5.328;2022-08-01T15:47:18;35.50;99.90
18541;DHT22;9400;50.924;5.328;2022-08-01T15:49:45;35.40;99.90
18541;DHT22;9400;50.924;5.328;2022-08-01T15:52:12;35.50;99.90
18541;DHT22;9400;50.924;5.328;2022-08-01T15:54:40;36.00;99.90
18541;DHT22;9400;50.924;5.328;2022-08-01T15:57:08;36.20;99.90
18541;DHT22;9400;50.924;5.328;2022-08-01T15:59:35;35.80;99.90
18541;DHT22;9400;50.924;5.328;2022-08-01T16:02:03;36.10;99.90
18541;DHT22;9400;50.924;5.328;2022-08-01T16:04:31;35.60;99.90
18541;DHT22;9400;50.924;5.328;2022-08-01T16:06:59;35.80;99.90
18541;DHT22;9400;50.924;5.328;2022-08-01T16:09:27;35.60;99.90
18541;DHT22;9400;50.924;5.328;2022-08-01T16:11:54;35.00;99.90